Pleasanton, Iowa
Current Conditions -  °F | °C
As of 3:53 PM on Monday 26 Jan 2015 (Local Time) from KLWD Reporting Station
Clear Clear  
Wind Chill: 53°   Ceiling: Unl
Heat Index: 53°   Visibility: 10mi
Dew Point: 37°   Wind: 18mph
Humidity: 55%   Direction: 330°NNW
Pressure: 29.87"   Gusts: NA
Location:  40.6385°N, 93.8094°W
Report Text: KLWD 262153Z AUTO 33016KT 10SM CLR 12/03 A2987 RMK AO2 SLP123 T01170028
Loading
Personal Weather Stations






























Interactive Weather Map New forecast layout! Learn more

10-Day Weather Forecast

Advertisements
Track Severe Weather on mobile